sensor_id;sensor_type;location;lat;lon;timestamp;pressure;altitude;pressure_sealevel;temperature;humidity
72961;BME280;61141;46.204;19.774;2022-09-21T00:02:27;100746.75;;;8.85;91.08
72961;BME280;61141;46.204;19.774;2022-09-21T00:05:31;100743.84;;;8.94;90.87
72961;BME280;61141;46.204;19.774;2022-09-21T00:08:34;100741.81;;;8.91;90.98
72961;BME280;61141;46.204;19.774;2022-09-21T00:11:37;100746.47;;;8.91;91.49
72961;BME280;61141;46.204;19.774;2022-09-21T00:14:41;100748.31;;;8.86;91.59
72961;BME280;61141;46.204;19.774;2022-09-21T00:17:45;100739.97;;;8.95;91.58
72961;BME280;61141;46.204;19.774;2022-09-21T00:20:49;100743.25;;;9.01;91.35
72961;BME280;61141;46.204;19.774;2022-09-21T00:23:54;100736.06;;;9.08;91.12
72961;BME280;61141;46.204;19.774;2022-09-21T00:26:56;100731.63;;;9.04;91.26
72961;BME280;61141;46.204;19.774;2022-09-21T00:30:00;100737.72;;;9.13;90.87
72961;BME280;61141;46.204;19.774;2022-09-21T00:33:06;100742.25;;;9.21;91.02
72961;BME280;61141;46.204;19.774;2022-09-21T00:36:12;100741.53;;;9.24;90.71
72961;BME280;61141;46.204;19.774;2022-09-21T00:39:15;100742.06;;;9.29;90.65
72961;BME280;61141;46.204;19.774;2022-09-21T00:42:23;100741.81;;;9.34;90.59
72961;BME280;61141;46.204;19.774;2022-09-21T00:45:27;100741.91;;;9.38;90.67
72961;BME280;61141;46.204;19.774;2022-09-21T00:48:30;100737.84;;;9.32;90.92
72961;BME280;61141;46.204;19.774;2022-09-21T00:51:35;100746.03;;;9.32;91.19
72961;BME280;61141;46.204;19.774;2022-09-21T00:54:44;100743.72;;;9.18;92.07
72961;BME280;61141;46.204;19.774;2022-09-21T00:57:52;100749.78;;;9.12;92.74
72961;BME280;61141;46.204;19.774;2022-09-21T01:00:57;100752.47;;;9.24;92.11
72961;BME280;61141;46.204;19.774;2022-09-21T01:04:01;100733.25;;;9.20;92.39
72961;BME280;61141;46.204;19.774;2022-09-21T01:07:14;100752.75;;;9.34;92.26
72961;BME280;61141;46.204;19.774;2022-09-21T01:10:19;100750.75;;;9.47;91.83
72961;BME280;61141;46.204;19.774;2022-09-21T01:17:17;100747.19;;;9.31;92.61
72961;BME280;61141;46.204;19.774;2022-09-21T01:20:39;100752.22;;;9.44;92.36
72961;BME280;61141;46.204;19.774;2022-09-21T01:27:38;100744.38;;;9.43;91.96
72961;BME280;61141;46.204;19.774;2022-09-21T01:30:44;100743.94;;;9.41;92.48
72961;BME280;61141;46.204;19.774;2022-09-21T01:33:54;100741.66;;;9.59;92.20
72961;BME280;61141;46.204;19.774;2022-09-21T01:37:10;100749.16;;;9.62;91.88
72961;BME280;61141;46.204;19.774;2022-09-21T01:40:21;100746.16;;;9.51;92.06
72961;BME280;61141;46.204;19.774;2022-09-21T01:43:30;100756.41;;;9.54;92.28
72961;BME280;61141;46.204;19.774;2022-09-21T01:46:36;100747.75;;;9.52;91.99
72961;BME280;61141;46.204;19.774;2022-09-21T01:49:43;100739.44;;;9.33;92.48
72961;BME280;61141;46.204;19.774;2022-09-21T01:52:52;100743.84;;;9.22;92.76
72961;BME280;61141;46.204;19.774;2022-09-21T01:56:01;100746.47;;;9.34;92.53
72961;BME280;61141;46.204;19.774;2022-09-21T02:02:52;100749.31;;;9.22;92.89
72961;BME280;61141;46.204;19.774;2022-09-21T02:05:57;100752.91;;;9.26;92.81
72961;BME280;61141;46.204;19.774;2022-09-21T02:08:59;100750.19;;;9.26;92.56
72961;BME280;61141;46.204;19.774;2022-09-21T02:12:03;100754.50;;;9.11;93.04
72961;BME280;61141;46.204;19.774;2022-09-21T02:15:07;100745.91;;;8.97;93.47
72961;BME280;61141;46.204;19.774;2022-09-21T02:22:00;100760.81;;;9.15;93.02
72961;BME280;61141;46.204;19.774;2022-09-21T02:25:18;100758.75;;;8.97;93.53
72961;BME280;61141;46.204;19.774;2022-09-21T02:28:43;100759.88;;;8.96;93.82
72961;BME280;61141;46.204;19.774;2022-09-21T02:32:02;100761.94;;;8.99;93.62
72961;BME280;61141;46.204;19.774;2022-09-21T02:39:02;100762.19;;;8.94;93.96
72961;BME280;61141;46.204;19.774;2022-09-21T02:42:13;100757.38;;;9.03;93.68
72961;BME280;61141;46.204;19.774;2022-09-21T02:45:29;100763.94;;;9.14;93.45
72961;BME280;61141;46.204;19.774;2022-09-21T02:48:37;100763.22;;;9.17;93.00
72961;BME280;61141;46.204;19.774;2022-09-21T02:51:49;100758.00;;;9.12;93.09
72961;BME280;61141;46.204;19.774;2022-09-21T02:54:53;100764.81;;;9.18;92.89
72961;BME280;61141;46.204;19.774;2022-09-21T02:57:58;100767.62;;;9.21;92.90
72961;BME280;61141;46.204;19.774;2022-09-21T03:01:04;100778.53;;;9.06;93.61
72961;BME280;61141;46.204;19.774;2022-09-21T03:04:10;100776.56;;;9.06;93.52
72961;BME280;61141;46.204;19.774;2022-09-21T03:07:16;100769.37;;;9.14;93.39
72961;BME280;61141;46.204;19.774;2022-09-21T03:10:19;100766.28;;;9.15;93.55
72961;BME280;61141;46.204;19.774;2022-09-21T03:13:22;100762.13;;;9.06;93.56
72961;BME280;61141;46.204;19.774;2022-09-21T03:16:25;100773.13;;;8.94;94.22
72961;BME280;61141;46.204;19.774;2022-09-21T03:19:28;100776.19;;;8.92;94.49
72961;BME280;61141;46.204;19.774;2022-09-21T03:22:30;100784.44;;;9.08;94.10
72961;BME280;61141;46.204;19.774;2022-09-21T03:25:33;100774.72;;;8.95;94.60
72961;BME280;61141;46.204;19.774;2022-09-21T03:28:37;100773.69;;;8.87;94.87
72961;BME280;61141;46.204;19.774;2022-09-21T03:31:40;100784.88;;;8.82;95.41
72961;BME280;61141;46.204;19.774;2022-09-21T03:34:43;100783.75;;;8.83;95.34
72961;BME280;61141;46.204;19.774;2022-09-21T03:37:46;100793.44;;;8.80;95.68
72961;BME280;61141;46.204;19.774;2022-09-21T03:40:49;100798.53;;;8.82;95.57
72961;BME280;61141;46.204;19.774;2022-09-21T03:43:52;100800.03;;;8.79;95.79
72961;BME280;61141;46.204;19.774;2022-09-21T03:46:55;100788.22;;;8.63;96.85
72961;BME280;61141;46.204;19.774;2022-09-21T03:49:59;100790.13;;;8.75;96.41
72961;BME280;61141;46.204;19.774;2022-09-21T03:53:02;100781.59;;;8.76;95.90
72961;BME280;61141;46.204;19.774;2022-09-21T03:56:05;100800.44;;;8.94;95.68
72961;BME280;61141;46.204;19.774;2022-09-21T03:59:08;100782.13;;;8.82;95.49
72961;BME280;61141;46.204;19.774;2022-09-21T04:02:15;100795.47;;;8.83;96.02
72961;BME280;61141;46.204;19.774;2022-09-21T04:05:18;100796.03;;;8.89;95.77
72961;BME280;61141;46.204;19.774;2022-09-21T04:08:22;100804.75;;;8.95;95.49
72961;BME280;61141;46.204;19.774;2022-09-21T04:11:24;100808.06;;;9.00;95.09
72961;BME280;61141;46.204;19.774;2022-09-21T04:14:27;100814.97;;;8.98;95.17
72961;BME280;61141;46.204;19.774;2022-09-21T04:17:31;100813.84;;;8.99;94.96
72961;BME280;61141;46.204;19.774;2022-09-21T04:20:34;100805.22;;;8.84;95.42
72961;BME280;61141;46.204;19.774;2022-09-21T04:23:37;100809.81;;;8.80;96.00
72961;BME280;61141;46.204;19.774;2022-09-21T04:26:39;100808.00;;;8.72;96.36
72961;BME280;61141;46.204;19.774;2022-09-21T04:29:43;100815.28;;;8.80;95.65
72961;BME280;61141;46.204;19.774;2022-09-21T04:32:46;100821.84;;;8.92;95.53
72961;BME280;61141;46.204;19.774;2022-09-21T04:35:55;100822.12;;;8.62;96.85
72961;BME280;61141;46.204;19.774;2022-09-21T04:39:00;100831.00;;;8.71;96.37
72961;BME280;61141;46.204;19.774;2022-09-21T04:42:04;100833.47;;;8.89;96.03
72961;BME280;61141;46.204;19.774;2022-09-21T04:45:07;100840.97;;;8.92;95.72
72961;BME280;61141;46.204;19.774;2022-09-21T04:48:10;100847.13;;;8.76;96.25
72961;BME280;61141;46.204;19.774;2022-09-21T04:51:14;100845.28;;;8.93;95.75
72961;BME280;61141;46.204;19.774;2022-09-21T04:54:17;100831.47;;;9.01;94.94
72961;BME280;61141;46.204;19.774;2022-09-21T04:57:20;100852.78;;;8.96;95.25
72961;BME280;61141;46.204;19.774;2022-09-21T05:00:23;100849.94;;;8.92;95.21
72961;BME280;61141;46.204;19.774;2022-09-21T05:03:25;100861.09;;;8.99;95.25
72961;BME280;61141;46.204;19.774;2022-09-21T05:06:32;100850.50;;;8.98;95.03
72961;BME280;61141;46.204;19.774;2022-09-21T05:09:35;100848.56;;;8.98;95.09
72961;BME280;61141;46.204;19.774;2022-09-21T05:12:58;100860.97;;;8.96;95.06
72961;BME280;61141;46.204;19.774;2022-09-21T05:16:00;100866.03;;;8.81;95.98
72961;BME280;61141;46.204;19.774;2022-09-21T05:19:04;100866.25;;;8.89;95.89
72961;BME280;61141;46.204;19.774;2022-09-21T05:22:06;100868.03;;;8.97;95.37
72961;BME280;61141;46.204;19.774;2022-09-21T05:25:09;100867.97;;;8.69;96.48
72961;BME280;61141;46.204;19.774;2022-09-21T05:28:12;100879.66;;;8.94;95.89
72961;BME280;61141;46.204;19.774;2022-09-21T05:31:29;100858.50;;;8.91;95.66
72961;BME280;61141;46.204;19.774;2022-09-21T05:38:05;100879.44;;;8.86;96.18
72961;BME280;61141;46.204;19.774;2022-09-21T05:41:10;100867.34;;;9.00;95.27
72961;BME280;61141;46.204;19.774;2022-09-21T05:44:13;100890.78;;;9.01;95.52
72961;BME280;61141;46.204;19.774;2022-09-21T05:54:00;100899.97;;;9.20;95.04
72961;BME280;61141;46.204;19.774;2022-09-21T05:57:12;100900.66;;;9.17;95.45
72961;BME280;61141;46.204;19.774;2022-09-21T06:00:20;100893.50;;;9.13;95.47
72961;BME280;61141;46.204;19.774;2022-09-21T06:03:30;100898.03;;;9.21;95.36
72961;BME280;61141;46.204;19.774;2022-09-21T06:06:33;100892.31;;;9.26;94.92
72961;BME280;61141;46.204;19.774;2022-09-21T06:09:36;100893.47;;;9.25;95.23
72961;BME280;61141;46.204;19.774;2022-09-21T06:12:44;100908.69;;;9.38;94.69
72961;BME280;61141;46.204;19.774;2022-09-21T06:15:47;100903.66;;;9.40;94.81
72961;BME280;61141;46.204;19.774;2022-09-21T06:18:49;100908.56;;;9.47;94.58
72961;BME280;61141;46.204;19.774;2022-09-21T06:21:52;100909.34;;;9.47;94.51
72961;BME280;61141;46.204;19.774;2022-09-21T06:24:55;100917.00;;;9.69;93.62
72961;BME280;61141;46.204;19.774;2022-09-21T06:28:02;100919.19;;;9.64;93.73
72961;BME280;61141;46.204;19.774;2022-09-21T06:31:05;100921.41;;;9.74;93.59
72961;BME280;61141;46.204;19.774;2022-09-21T06:34:08;100920.78;;;9.65;93.97
72961;BME280;61141;46.204;19.774;2022-09-21T06:37:13;100937.03;;;9.73;93.09
72961;BME280;61141;46.204;19.774;2022-09-21T06:40:16;100939.06;;;9.76;93.33
72961;BME280;61141;46.204;19.774;2022-09-21T06:43:19;100932.06;;;10.07;92.56
72961;BME280;61141;46.204;19.774;2022-09-21T06:46:22;100940.09;;;10.27;91.17
72961;BME280;61141;46.204;19.774;2022-09-21T06:49:25;100945.50;;;10.12;91.60
72961;BME280;61141;46.204;19.774;2022-09-21T06:52:30;100940.34;;;10.22;91.34
72961;BME280;61141;46.204;19.774;2022-09-21T06:55:33;100946.97;;;10.37;90.96
72961;BME280;61141;46.204;19.774;2022-09-21T06:58:36;100945.37;;;10.36;90.70
72961;BME280;61141;46.204;19.774;2022-09-21T07:01:39;100939.19;;;10.39;89.82
72961;BME280;61141;46.204;19.774;2022-09-21T07:04:43;100958.91;;;10.60;89.75
72961;BME280;61141;46.204;19.774;2022-09-21T07:07:45;100957.22;;;10.71;89.41
72961;BME280;61141;46.204;19.774;2022-09-21T07:10:49;100953.97;;;10.66;89.30
72961;BME280;61141;46.204;19.774;2022-09-21T07:13:52;100962.00;;;10.74;89.53
72961;BME280;61141;46.204;19.774;2022-09-21T07:16:55;100967.38;;;10.86;89.04
72961;BME280;61141;46.204;19.774;2022-09-21T07:20:00;100959.22;;;10.90;88.32
72961;BME280;61141;46.204;19.774;2022-09-21T07:23:11;100958.66;;;11.15;87.64
72961;BME280;61141;46.204;19.774;2022-09-21T07:26:16;100946.88;;;11.15;86.60
72961;BME280;61141;46.204;19.774;2022-09-21T07:29:19;100969.00;;;11.41;86.27
72961;BME280;61141;46.204;19.774;2022-09-21T07:32:22;100958.97;;;11.49;85.98
72961;BME280;61141;46.204;19.774;2022-09-21T07:35:26;100953.97;;;11.70;84.16
72961;BME280;61141;46.204;19.774;2022-09-21T07:38:29;100961.59;;;11.80;83.74
72961;BME280;61141;46.204;19.774;2022-09-21T07:41:31;100957.84;;;11.88;83.84
72961;BME280;61141;46.204;19.774;2022-09-21T07:44:34;100962.19;;;11.89;83.96
72961;BME280;61141;46.204;19.774;2022-09-21T07:47:37;100959.06;;;11.91;83.39
72961;BME280;61141;46.204;19.774;2022-09-21T07:50:40;100968.81;;;11.88;82.39
72961;BME280;61141;46.204;19.774;2022-09-21T07:53:44;100960.88;;;12.02;82.35
72961;BME280;61141;46.204;19.774;2022-09-21T07:56:46;100953.66;;;11.94;81.46
72961;BME280;61141;46.204;19.774;2022-09-21T08:00:10;100966.56;;;12.35;79.77
72961;BME280;61141;46.204;19.774;2022-09-21T08:03:12;100966.19;;;12.60;78.61
72961;BME280;61141;46.204;19.774;2022-09-21T08:06:16;100966.91;;;12.79;77.54
72961;BME280;61141;46.204;19.774;2022-09-21T08:09:19;100963.38;;;12.79;76.27
72961;BME280;61141;46.204;19.774;2022-09-21T08:12:21;100979.00;;;12.98;74.78
72961;BME280;61141;46.204;19.774;2022-09-21T08:15:24;100974.59;;;13.16;75.37
72961;BME280;61141;46.204;19.774;2022-09-21T08:18:48;100972.91;;;13.08;74.38
72961;BME280;61141;46.204;19.774;2022-09-21T08:21:51;100981.28;;;13.44;74.06
72961;BME280;61141;46.204;19.774;2022-09-21T08:24:59;100984.91;;;13.52;73.35
72961;BME280;61141;46.204;19.774;2022-09-21T08:28:01;100991.84;;;13.42;72.56
72961;BME280;61141;46.204;19.774;2022-09-21T08:31:11;100988.16;;;13.31;72.44
72961;BME280;61141;46.204;19.774;2022-09-21T08:34:13;100986.06;;;13.47;72.43
72961;BME280;61141;46.204;19.774;2022-09-21T08:37:17;100986.66;;;13.64;70.77
72961;BME280;61141;46.204;19.774;2022-09-21T08:40:21;100987.28;;;13.83;69.65
72961;BME280;61141;46.204;19.774;2022-09-21T08:43:38;100992.94;;;13.97;68.85
72961;BME280;61141;46.204;19.774;2022-09-21T08:46:43;100981.91;;;13.94;67.55
72961;BME280;61141;46.204;19.774;2022-09-21T08:49:52;100992.28;;;14.07;67.04
72961;BME280;61141;46.204;19.774;2022-09-21T08:53:01;100995.41;;;14.06;68.21
72961;BME280;61141;46.204;19.774;2022-09-21T08:56:05;100978.19;;;14.49;67.27
72961;BME280;61141;46.204;19.774;2022-09-21T08:59:13;100999.63;;;14.30;67.14
72961;BME280;61141;46.204;19.774;2022-09-21T09:06:08;101001.41;;;14.15;68.25
72961;BME280;61141;46.204;19.774;2022-09-21T09:16:28;100998.25;;;14.13;64.74
72961;BME280;61141;46.204;19.774;2022-09-21T09:19:48;100991.84;;;14.79;64.84
72961;BME280;61141;46.204;19.774;2022-09-21T09:26:20;100987.81;;;15.24;62.81
72961;BME280;61141;46.204;19.774;2022-09-21T09:29:43;100988.06;;;15.63;62.09
72961;BME280;61141;46.204;19.774;2022-09-21T09:33:10;100988.97;;;15.16;60.98
72961;BME280;61141;46.204;19.774;2022-09-21T09:36:20;100981.97;;;15.33;60.44
72961;BME280;61141;46.204;19.774;2022-09-21T09:39:53;100983.66;;;15.51;60.73
72961;BME280;61141;46.204;19.774;2022-09-21T09:43:21;100973.03;;;15.53;60.73
72961;BME280;61141;46.204;19.774;2022-09-21T09:46:59;100985.97;;;15.46;59.55
72961;BME280;61141;46.204;19.774;2022-09-21T09:53:11;100981.12;;;15.28;60.47
72961;BME280;61141;46.204;19.774;2022-09-21T09:56:17;100981.41;;;15.78;59.45
72961;BME280;61141;46.204;19.774;2022-09-21T09:59:50;100979.47;;;15.85;57.35
72961;BME280;61141;46.204;19.774;2022-09-21T10:02:57;100974.00;;;16.03;57.79
72961;BME280;61141;46.204;19.774;2022-09-21T10:06:03;100977.47;;;15.75;59.25
72961;BME280;61141;46.204;19.774;2022-09-21T10:09:32;100973.00;;;15.46;58.57
72961;BME280;61141;46.204;19.774;2022-09-21T10:12:37;100981.44;;;15.13;58.86
72961;BME280;61141;46.204;19.774;2022-09-21T10:18:54;100960.81;;;14.93;60.15
72961;BME280;61141;46.204;19.774;2022-09-21T10:22:03;100963.34;;;15.22;59.64
72961;BME280;61141;46.204;19.774;2022-09-21T10:25:14;100965.78;;;15.35;58.49
72961;BME280;61141;46.204;19.774;2022-09-21T10:28:19;100966.94;;;15.30;57.70
72961;BME280;61141;46.204;19.774;2022-09-21T10:31:29;100965.47;;;15.43;58.46
72961;BME280;61141;46.204;19.774;2022-09-21T10:34:33;100956.44;;;15.46;58.39
72961;BME280;61141;46.204;19.774;2022-09-21T10:37:39;100958.31;;;15.39;58.15
72961;BME280;61141;46.204;19.774;2022-09-21T10:40:43;100945.56;;;15.99;56.95
72961;BME280;61141;46.204;19.774;2022-09-21T10:43:48;100944.84;;;16.41;55.24
72961;BME280;61141;46.204;19.774;2022-09-21T10:46:52;100936.94;;;16.39;54.81
72961;BME280;61141;46.204;19.774;2022-09-21T10:50:05;100943.66;;;16.28;54.03
72961;BME280;61141;46.204;19.774;2022-09-21T10:56:23;100933.78;;;16.48;53.11
72961;BME280;61141;46.204;19.774;2022-09-21T10:59:29;100939.34;;;16.69;52.79
72961;BME280;61141;46.204;19.774;2022-09-21T11:02:34;100932.19;;;16.47;53.03
72961;BME280;61141;46.204;19.774;2022-09-21T11:05:40;100938.13;;;16.49;53.63
72961;BME280;61141;46.204;19.774;2022-09-21T11:15:49;100923.06;;;17.10;52.87
72961;BME280;61141;46.204;19.774;2022-09-21T11:22:31;100914.38;;;17.12;51.87
72961;BME280;61141;46.204;19.774;2022-09-21T11:25:43;100923.06;;;17.14;50.88
72961;BME280;61141;46.204;19.774;2022-09-21T11:38:44;100907.25;;;17.11;50.66
72961;BME280;61141;46.204;19.774;2022-09-21T11:58:31;100908.88;;;15.09;63.59
72961;BME280;61141;46.204;19.774;2022-09-21T12:05:14;100901.84;;;15.18;62.37
72961;BME280;61141;46.204;19.774;2022-09-21T12:11:42;100899.69;;;15.66;59.39
72961;BME280;61141;46.204;19.774;2022-09-21T12:15:05;100895.41;;;15.94;58.92
72961;BME280;61141;46.204;19.774;2022-09-21T12:22:23;100899.75;;;15.84;58.37
72961;BME280;61141;46.204;19.774;2022-09-21T12:25:36;100896.22;;;15.98;57.58
72961;BME280;61141;46.204;19.774;2022-09-21T12:28:46;100898.97;;;15.87;58.84
72961;BME280;61141;46.204;19.774;2022-09-21T12:35:31;100888.75;;;16.44;58.05
72961;BME280;61141;46.204;19.774;2022-09-21T12:38:41;100896.28;;;16.65;56.69
72961;BME280;61141;46.204;19.774;2022-09-21T12:45:21;100890.31;;;16.84;54.32
72961;BME280;61141;46.204;19.774;2022-09-21T12:48:31;100883.12;;;17.04;51.56
72961;BME280;61141;46.204;19.774;2022-09-21T12:51:38;100882.41;;;16.82;52.48
72961;BME280;61141;46.204;19.774;2022-09-21T12:55:05;100879.28;;;16.56;54.55
72961;BME280;61141;46.204;19.774;2022-09-21T12:58:46;100875.31;;;16.04;55.21
72961;BME280;61141;46.204;19.774;2022-09-21T13:02:02;100885.88;;;15.63;55.71
72961;BME280;61141;46.204;19.774;2022-09-21T13:08:32;100897.16;;;15.33;57.54
72961;BME280;61141;46.204;19.774;2022-09-21T13:14:58;100897.13;;;15.26;57.37
72961;BME280;61141;46.204;19.774;2022-09-21T13:18:06;100891.63;;;15.29;58.11
72961;BME280;61141;46.204;19.774;2022-09-21T13:21:20;100889.66;;;15.26;57.41
72961;BME280;61141;46.204;19.774;2022-09-21T13:24:28;100894.00;;;15.31;58.99
72961;BME280;61141;46.204;19.774;2022-09-21T13:34:41;100886.75;;;15.99;52.55
72961;BME280;61141;46.204;19.774;2022-09-21T13:41:26;100886.22;;;15.51;50.94
72961;BME280;61141;46.204;19.774;2022-09-21T13:44:51;100888.16;;;15.43;52.03
72961;BME280;61141;46.204;19.774;2022-09-21T13:47:55;100875.50;;;15.42;53.37
72961;BME280;61141;46.204;19.774;2022-09-21T13:51:06;100880.25;;;15.45;52.82
72961;BME280;61141;46.204;19.774;2022-09-21T13:54:11;100882.19;;;15.41;54.26
72961;BME280;61141;46.204;19.774;2022-09-21T14:03:48;100882.81;;;15.03;54.59
72961;BME280;61141;46.204;19.774;2022-09-21T14:06:52;100883.22;;;15.01;56.24
72961;BME280;61141;46.204;19.774;2022-09-21T14:10:04;100876.91;;;15.01;55.68
72961;BME280;61141;46.204;19.774;2022-09-21T14:22:46;100866.03;;;15.33;55.81
72961;BME280;61141;46.204;19.774;2022-09-21T14:25:52;100868.81;;;15.43;54.70
72961;BME280;61141;46.204;19.774;2022-09-21T14:28:57;100868.41;;;15.38;53.09
72961;BME280;61141;46.204;19.774;2022-09-21T14:32:14;100869.56;;;15.29;53.68
72961;BME280;61141;46.204;19.774;2022-09-21T14:35:21;100873.12;;;15.37;55.30
72961;BME280;61141;46.204;19.774;2022-09-21T14:38:27;100860.91;;;15.42;54.67
72961;BME280;61141;46.204;19.774;2022-09-21T14:41:37;100863.28;;;15.43;54.79
72961;BME280;61141;46.204;19.774;2022-09-21T14:44:41;100853.09;;;15.51;55.40
72961;BME280;61141;46.204;19.774;2022-09-21T14:48:15;100862.97;;;15.52;55.53
72961;BME280;61141;46.204;19.774;2022-09-21T15:02:26;100856.59;;;15.41;56.21
72961;BME280;61141;46.204;19.774;2022-09-21T15:05:37;100856.16;;;15.39;57.09
72961;BME280;61141;46.204;19.774;2022-09-21T15:16:53;100856.91;;;15.28;58.04
72961;BME280;61141;46.204;19.774;2022-09-21T15:19:58;100854.91;;;15.22;58.31
72961;BME280;61141;46.204;19.774;2022-09-21T15:23:16;100845.03;;;15.10;58.72
72961;BME280;61141;46.204;19.774;2022-09-21T15:26:28;100855.28;;;15.10;58.98
72961;BME280;61141;46.204;19.774;2022-09-21T15:29:32;100857.22;;;15.09;59.70
72961;BME280;61141;46.204;19.774;2022-09-21T15:32:41;100858.81;;;15.07;60.99
72961;BME280;61141;46.204;19.774;2022-09-21T15:35:45;100854.44;;;15.06;59.67
72961;BME280;61141;46.204;19.774;2022-09-21T15:38:52;100867.06;;;15.07;60.34
72961;BME280;61141;46.204;19.774;2022-09-21T15:45:16;100851.72;;;15.09;61.19
72961;BME280;61141;46.204;19.774;2022-09-21T15:48:21;100848.91;;;14.99;61.00
72961;BME280;61141;46.204;19.774;2022-09-21T15:51:33;100864.28;;;15.03;61.21
72961;BME280;61141;46.204;19.774;2022-09-21T15:54:44;100865.47;;;14.99;60.41
72961;BME280;61141;46.204;19.774;2022-09-21T15:57:52;100879.25;;;15.02;61.29
72961;BME280;61141;46.204;19.774;2022-09-21T16:00:57;100878.06;;;15.00;62.23
72961;BME280;61141;46.204;19.774;2022-09-21T16:04:04;100882.38;;;14.94;62.87
72961;BME280;61141;46.204;19.774;2022-09-21T16:07:25;100889.84;;;14.90;63.61
72961;BME280;61141;46.204;19.774;2022-09-21T16:13:34;100900.78;;;14.76;66.01
72961;BME280;61141;46.204;19.774;2022-09-21T16:20:16;100916.06;;;14.62;66.62
72961;BME280;61141;46.204;19.774;2022-09-21T16:23:22;100914.78;;;14.53;68.16
72961;BME280;61141;46.204;19.774;2022-09-21T16:26:34;100925.41;;;14.51;67.33
72961;BME280;61141;46.204;19.774;2022-09-21T16:29:39;100923.38;;;14.44;69.65
72961;BME280;61141;46.204;19.774;2022-09-21T16:32:44;100927.31;;;14.43;65.28
72961;BME280;61141;46.204;19.774;2022-09-21T16:35:49;100921.72;;;14.36;64.80
72961;BME280;61141;46.204;19.774;2022-09-21T16:38:52;100922.44;;;14.30;62.59
72961;BME280;61141;46.204;19.774;2022-09-21T16:41:57;100931.81;;;14.22;62.00
72961;BME280;61141;46.204;19.774;2022-09-21T16:45:09;100922.66;;;14.14;60.70
72961;BME280;61141;46.204;19.774;2022-09-21T16:48:18;100922.25;;;14.12;59.52
72961;BME280;61141;46.204;19.774;2022-09-21T16:51:21;100921.47;;;14.08;61.55
72961;BME280;61141;46.204;19.774;2022-09-21T16:54:26;100919.00;;;13.99;63.61
72961;BME280;61141;46.204;19.774;2022-09-21T16:57:29;100920.09;;;13.91;63.18
72961;BME280;61141;46.204;19.774;2022-09-21T17:00:38;100912.88;;;13.80;64.08
72961;BME280;61141;46.204;19.774;2022-09-21T17:03:42;100919.56;;;13.79;64.48
72961;BME280;61141;46.204;19.774;2022-09-21T17:06:45;100930.50;;;13.72;65.34
72961;BME280;61141;46.204;19.774;2022-09-21T17:09:47;100934.28;;;13.60;67.67
72961;BME280;61141;46.204;19.774;2022-09-21T17:12:51;100932.22;;;13.50;68.15
72961;BME280;61141;46.204;19.774;2022-09-21T17:15:55;100942.31;;;13.42;68.97
72961;BME280;61141;46.204;19.774;2022-09-21T17:18:58;100942.19;;;13.32;69.72
72961;BME280;61141;46.204;19.774;2022-09-21T17:22:04;100952.50;;;13.12;69.92
72961;BME280;61141;46.204;19.774;2022-09-21T17:25:08;100956.53;;;12.92;70.02
72961;BME280;61141;46.204;19.774;2022-09-21T17:28:14;100959.94;;;12.85;70.61
72961;BME280;61141;46.204;19.774;2022-09-21T17:31:21;100963.69;;;12.74;71.53
72961;BME280;61141;46.204;19.774;2022-09-21T17:34:27;100958.69;;;12.57;70.95
72961;BME280;61141;46.204;19.774;2022-09-21T17:37:32;100964.75;;;12.43;71.94
72961;BME280;61141;46.204;19.774;2022-09-21T17:40:35;100972.87;;;12.36;72.31
72961;BME280;61141;46.204;19.774;2022-09-21T17:47:07;100974.41;;;12.33;71.71
72961;BME280;61141;46.204;19.774;2022-09-21T17:50:20;100970.34;;;12.27;74.35
72961;BME280;61141;46.204;19.774;2022-09-21T17:53:25;100974.56;;;12.21;74.32
72961;BME280;61141;46.204;19.774;2022-09-21T18:00:10;100955.53;;;12.09;74.24
72961;BME280;61141;46.204;19.774;2022-09-21T18:03:21;100965.56;;;12.02;75.09
72961;BME280;61141;46.204;19.774;2022-09-21T18:06:27;100961.88;;;11.94;76.35
72961;BME280;61141;46.204;19.774;2022-09-21T18:09:30;100970.00;;;11.87;76.30
72961;BME280;61141;46.204;19.774;2022-09-21T18:15:52;100965.06;;;11.77;77.12
72961;BME280;61141;46.204;19.774;2022-09-21T18:25:33;100972.84;;;11.56;78.17
72961;BME280;61141;46.204;19.774;2022-09-21T18:28:42;100965.19;;;11.46;78.73
72961;BME280;61141;46.204;19.774;2022-09-21T18:45:57;100976.78;;;11.20;79.50
72961;BME280;61141;46.204;19.774;2022-09-21T18:49:16;100981.31;;;11.12;79.64
72961;BME280;61141;46.204;19.774;2022-09-21T18:52:29;100983.16;;;11.08;80.18
72961;BME280;61141;46.204;19.774;2022-09-21T18:55:37;100983.88;;;11.05;80.57
72961;BME280;61141;46.204;19.774;2022-09-21T18:58:41;100985.09;;;11.08;80.42
72961;BME280;61141;46.204;19.774;2022-09-21T19:01:47;100984.75;;;11.09;80.19
72961;BME280;61141;46.204;19.774;2022-09-21T19:04:51;100980.06;;;11.10;80.25
72961;BME280;61141;46.204;19.774;2022-09-21T19:08:21;100986.34;;;11.10;80.15
72961;BME280;61141;46.204;19.774;2022-09-21T19:12:34;100985.47;;;11.06;80.73
72961;BME280;61141;46.204;19.774;2022-09-21T19:22:34;100981.78;;;10.99;81.57
72961;BME280;61141;46.204;19.774;2022-09-21T19:25:42;100981.50;;;11.04;81.54
72961;BME280;61141;46.204;19.774;2022-09-21T19:32:17;100977.34;;;10.94;82.28
72961;BME280;61141;46.204;19.774;2022-09-21T19:35:25;100974.78;;;10.86;82.89
72961;BME280;61141;46.204;19.774;2022-09-21T19:38:29;100976.84;;;10.73;82.82
72961;BME280;61141;46.204;19.774;2022-09-21T19:41:47;100972.78;;;10.67;83.09
72961;BME280;61141;46.204;19.774;2022-09-21T19:48:04;100962.63;;;10.52;83.64